sensor_id;sensor_type;location;lat;lon;timestamp;temperature;humidity
12957;DHT22;6543;48.836;10.092;2023-09-19T00:01:39;16.50;99.90
12957;DHT22;6543;48.836;10.092;2023-09-19T00:04:08;16.80;99.90
12957;DHT22;6543;48.836;10.092;2023-09-19T00:06:36;16.90;99.90
12957;DHT22;6543;48.836;10.092;2023-09-19T00:09:03;16.70;99.90
12957;DHT22;6543;48.836;10.092;2023-09-19T00:11:30;16.80;99.90
12957;DHT22;6543;48.836;10.092;2023-09-19T00:13:57;16.70;99.90
12957;DHT22;6543;48.836;10.092;2023-09-19T00:16:25;16.80;99.90
12957;DHT22;6543;48.836;10.092;2023-09-19T00:18:52;16.90;99.90
12957;DHT22;6543;48.836;10.092;2023-09-19T00:21:21;16.90;99.90
12957;DHT22;6543;48.836;10.092;2023-09-19T00:23:47;16.90;99.90
12957;DHT22;6543;48.836;10.092;2023-09-19T00:26:14;16.90;99.90
12957;DHT22;6543;48.836;10.092;2023-09-19T00:28:43;17.00;99.90
12957;DHT22;6543;48.836;10.092;2023-09-19T00:31:10;17.00;99.90
12957;DHT22;6543;48.836;10.092;2023-09-19T00:33:37;17.00;99.90
12957;DHT22;6543;48.836;10.092;2023-09-19T00:36:04;16.90;99.90
12957;DHT22;6543;48.836;10.092;2023-09-19T00:38:32;17.00;99.90
12957;DHT22;6543;48.836;10.092;2023-09-19T00:40:59;16.90;99.90
12957;DHT22;6543;48.836;10.092;2023-09-19T00:43:26;16.90;99.90
12957;DHT22;6543;48.836;10.092;2023-09-19T00:45:55;16.90;99.90
12957;DHT22;6543;48.836;10.092;2023-09-19T00:48:23;16.90;99.90
12957;DHT22;6543;48.836;10.092;2023-09-19T00:50:50;16.80;99.90
12957;DHT22;6543;48.836;10.092;2023-09-19T00:53:21;16.80;99.90
12957;DHT22;6543;48.836;10.092;2023-09-19T00:55:50;16.80;99.90
12957;DHT22;6543;48.836;10.092;2023-09-19T00:58:17;16.70;99.90
12957;DHT22;6543;48.836;10.092;2023-09-19T01:00:45;16.60;99.90
12957;DHT22;6543;48.836;10.092;2023-09-19T01:03:12;16.60;99.90
12957;DHT22;6543;48.836;10.092;2023-09-19T01:08:07;16.60;99.90
12957;DHT22;6543;48.836;10.092;2023-09-19T01:10:42;16.60;99.90
12957;DHT22;6543;48.836;10.092;2023-09-19T01:13:21;16.50;99.90
12957;DHT22;6543;48.836;10.092;2023-09-19T01:15:59;16.50;99.90
12957;DHT22;6543;48.836;10.092;2023-09-19T01:18:35;16.40;99.90
12957;DHT22;6543;48.836;10.092;2023-09-19T01:21:13;16.30;99.90
12957;DHT22;6543;48.836;10.092;2023-09-19T01:27:04;16.20;99.90
12957;DHT22;6543;48.836;10.092;2023-09-19T01:29:38;16.20;99.90
12957;DHT22;6543;48.836;10.092;2023-09-19T01:32:08;16.10;99.90
12957;DHT22;6543;48.836;10.092;2023-09-19T01:34:46;16.10;99.90
12957;DHT22;6543;48.836;10.092;2023-09-19T01:37:14;16.10;99.90
12957;DHT22;6543;48.836;10.092;2023-09-19T01:39:46;16.00;99.90
12957;DHT22;6543;48.836;10.092;2023-09-19T01:42:21;15.90;99.90
12957;DHT22;6543;48.836;10.092;2023-09-19T01:44:57;15.90;99.90
12957;DHT22;6543;48.836;10.092;2023-09-19T01:47:32;15.80;99.90
12957;DHT22;6543;48.836;10.092;2023-09-19T01:50:07;15.80;99.90
12957;DHT22;6543;48.836;10.092;2023-09-19T01:52:47;14.70;99.90
12957;DHT22;6543;48.836;10.092;2023-09-19T01:55:16;15.70;99.90
12957;DHT22;6543;48.836;10.092;2023-09-19T01:57:51;15.70;99.90
12957;DHT22;6543;48.836;10.092;2023-09-19T02:00:22;15.70;99.90
12957;DHT22;6543;48.836;10.092;2023-09-19T02:02:52;16.20;99.90
12957;DHT22;6543;48.836;10.092;2023-09-19T02:05:25;15.40;99.90
12957;DHT22;6543;48.836;10.092;2023-09-19T02:07:53;15.70;99.90
12957;DHT22;6543;48.836;10.092;2023-09-19T02:10:21;16.80;99.90
12957;DHT22;6543;48.836;10.092;2023-09-19T02:12:48;15.80;99.90
12957;DHT22;6543;48.836;10.092;2023-09-19T02:15:15;15.90;99.90
12957;DHT22;6543;48.836;10.092;2023-09-19T02:17:42;15.90;99.90
12957;DHT22;6543;48.836;10.092;2023-09-19T02:20:13;16.10;99.90
12957;DHT22;6543;48.836;10.092;2023-09-19T02:22:42;16.00;99.90
12957;DHT22;6543;48.836;10.092;2023-09-19T02:25:09;16.90;99.90
12957;DHT22;6543;48.836;10.092;2023-09-19T02:30:06;16.10;99.90
12957;DHT22;6543;48.836;10.092;2023-09-19T02:32:33;16.60;99.90
12957;DHT22;6543;48.836;10.092;2023-09-19T02:35:06;17.00;99.90
12957;DHT22;6543;48.836;10.092;2023-09-19T02:37:34;16.20;99.90
12957;DHT22;6543;48.836;10.092;2023-09-19T02:40:01;16.30;99.90
12957;DHT22;6543;48.836;10.092;2023-09-19T02:42:44;16.30;99.90
12957;DHT22;6543;48.836;10.092;2023-09-19T02:45:15;16.30;99.90
12957;DHT22;6543;48.836;10.092;2023-09-19T02:47:43;16.30;99.90
12957;DHT22;6543;48.836;10.092;2023-09-19T02:50:10;16.30;99.90
12957;DHT22;6543;48.836;10.092;2023-09-19T02:52:41;16.10;99.90
12957;DHT22;6543;48.836;10.092;2023-09-19T02:55:10;15.50;99.90
12957;DHT22;6543;48.836;10.092;2023-09-19T02:57:37;16.40;99.90
12957;DHT22;6543;48.836;10.092;2023-09-19T03:00:07;16.40;99.90
12957;DHT22;6543;48.836;10.092;2023-09-19T03:02:36;16.30;99.90
12957;DHT22;6543;48.836;10.092;2023-09-19T03:05:06;16.20;99.90
12957;DHT22;6543;48.836;10.092;2023-09-19T03:07:34;16.10;99.90
12957;DHT22;6543;48.836;10.092;2023-09-19T03:10:05;16.00;99.90
12957;DHT22;6543;48.836;10.092;2023-09-19T03:12:33;16.00;99.90
12957;DHT22;6543;48.836;10.092;2023-09-19T03:15:00;15.90;99.90
12957;DHT22;6543;48.836;10.092;2023-09-19T03:17:27;15.90;99.90
12957;DHT22;6543;48.836;10.092;2023-09-19T03:19:54;15.80;99.90
12957;DHT22;6543;48.836;10.092;2023-09-19T03:22:22;17.00;99.90
12957;DHT22;6543;48.836;10.092;2023-09-19T03:24:51;15.70;99.90
12957;DHT22;6543;48.836;10.092;2023-09-19T03:27:20;15.60;99.90
12957;DHT22;6543;48.836;10.092;2023-09-19T03:29:47;15.60;99.90
12957;DHT22;6543;48.836;10.092;2023-09-19T03:32:15;15.50;99.90
12957;DHT22;6543;48.836;10.092;2023-09-19T03:34:42;15.50;99.90
12957;DHT22;6543;48.836;10.092;2023-09-19T03:37:09;15.10;99.90
12957;DHT22;6543;48.836;10.092;2023-09-19T03:39:36;14.30;99.90
12957;DHT22;6543;48.836;10.092;2023-09-19T03:42:04;15.40;99.90
12957;DHT22;6543;48.836;10.092;2023-09-19T03:44:34;15.40;99.90
12957;DHT22;6543;48.836;10.092;2023-09-19T03:47:05;16.90;99.90
12957;DHT22;6543;48.836;10.092;2023-09-19T03:49:33;15.40;99.90
12957;DHT22;6543;48.836;10.092;2023-09-19T03:52:00;16.80;99.90
12957;DHT22;6543;48.836;10.092;2023-09-19T03:54:28;15.40;99.90
12957;DHT22;6543;48.836;10.092;2023-09-19T03:56:55;15.40;99.90
12957;DHT22;6543;48.836;10.092;2023-09-19T03:59:22;15.40;99.90
12957;DHT22;6543;48.836;10.092;2023-09-19T04:01:52;16.70;99.90
12957;DHT22;6543;48.836;10.092;2023-09-19T04:04:22;16.30;99.90
12957;DHT22;6543;48.836;10.092;2023-09-19T04:06:50;16.40;99.90
12957;DHT22;6543;48.836;10.092;2023-09-19T04:09:17;15.30;99.90
12957;DHT22;6543;48.836;10.092;2023-09-19T04:11:44;15.30;99.90
12957;DHT22;6543;48.836;10.092;2023-09-19T04:14:11;15.90;99.90
12957;DHT22;6543;48.836;10.092;2023-09-19T04:16:38;16.30;99.90
12957;DHT22;6543;48.836;10.092;2023-09-19T04:19:06;16.00;99.90
12957;DHT22;6543;48.836;10.092;2023-09-19T04:21:33;14.30;99.90
12957;DHT22;6543;48.836;10.092;2023-09-19T04:24:00;15.50;99.90
12957;DHT22;6543;48.836;10.092;2023-09-19T04:26:28;15.60;99.90
12957;DHT22;6543;48.836;10.092;2023-09-19T04:28:55;15.60;99.90
12957;DHT22;6543;48.836;10.092;2023-09-19T04:31:23;15.60;99.90
12957;DHT22;6543;48.836;10.092;2023-09-19T04:33:50;16.50;99.90
12957;DHT22;6543;48.836;10.092;2023-09-19T04:36:19;17.10;99.90
12957;DHT22;6543;48.836;10.092;2023-09-19T04:38:47;15.60;99.90
12957;DHT22;6543;48.836;10.092;2023-09-19T04:41:15;15.70;99.90
12957;DHT22;6543;48.836;10.092;2023-09-19T04:43:42;15.70;99.90
12957;DHT22;6543;48.836;10.092;2023-09-19T04:46:09;15.60;99.90
12957;DHT22;6543;48.836;10.092;2023-09-19T04:48:39;16.70;99.90
12957;DHT22;6543;48.836;10.092;2023-09-19T04:51:07;15.70;99.90
12957;DHT22;6543;48.836;10.092;2023-09-19T04:53:35;17.40;99.90
12957;DHT22;6543;48.836;10.092;2023-09-19T04:56:02;16.90;99.90
12957;DHT22;6543;48.836;10.092;2023-09-19T04:58:29;15.80;99.90
12957;DHT22;6543;48.836;10.092;2023-09-19T05:00:56;15.90;99.90
12957;DHT22;6543;48.836;10.092;2023-09-19T05:03:23;16.90;99.90
12957;DHT22;6543;48.836;10.092;2023-09-19T05:05:50;15.80;99.90
12957;DHT22;6543;48.836;10.092;2023-09-19T05:08:17;16.80;99.90
12957;DHT22;6543;48.836;10.092;2023-09-19T05:10:45;17.30;99.90
12957;DHT22;6543;48.836;10.092;2023-09-19T05:13:12;15.80;99.90
12957;DHT22;6543;48.836;10.092;2023-09-19T05:15:39;15.80;99.90
12957;DHT22;6543;48.836;10.092;2023-09-19T05:18:06;15.90;99.90
12957;DHT22;6543;48.836;10.092;2023-09-19T05:20:34;15.80;99.90
12957;DHT22;6543;48.836;10.092;2023-09-19T05:23:04;15.90;99.90
12957;DHT22;6543;48.836;10.092;2023-09-19T05:25:34;15.90;99.90
12957;DHT22;6543;48.836;10.092;2023-09-19T05:28:05;15.90;99.90
12957;DHT22;6543;48.836;10.092;2023-09-19T05:30:33;15.90;99.90
12957;DHT22;6543;48.836;10.092;2023-09-19T05:33:01;15.80;99.90
12957;DHT22;6543;48.836;10.092;2023-09-19T05:35:30;15.90;99.90
12957;DHT22;6543;48.836;10.092;2023-09-19T05:37:57;15.90;99.90
12957;DHT22;6543;48.836;10.092;2023-09-19T05:40:25;15.90;99.90
12957;DHT22;6543;48.836;10.092;2023-09-19T05:42:52;16.10;99.90
12957;DHT22;6543;48.836;10.092;2023-09-19T05:45:20;16.10;99.90
12957;DHT22;6543;48.836;10.092;2023-09-19T05:47:48;16.10;99.90
12957;DHT22;6543;48.836;10.092;2023-09-19T05:50:16;16.10;99.90
12957;DHT22;6543;48.836;10.092;2023-09-19T05:52:51;16.00;99.90
12957;DHT22;6543;48.836;10.092;2023-09-19T05:55:18;16.20;99.90
12957;DHT22;6543;48.836;10.092;2023-09-19T05:57:49;16.30;99.90
12957;DHT22;6543;48.836;10.092;2023-09-19T06:00:17;16.40;99.90
12957;DHT22;6543;48.836;10.092;2023-09-19T06:02:45;16.30;99.90
12957;DHT22;6543;48.836;10.092;2023-09-19T06:05:15;16.80;99.90
12957;DHT22;6543;48.836;10.092;2023-09-19T06:07:42;16.50;99.90
12957;DHT22;6543;48.836;10.092;2023-09-19T06:10:09;16.50;99.90
12957;DHT22;6543;48.836;10.092;2023-09-19T06:12:38;16.80;99.90
12957;DHT22;6543;48.836;10.092;2023-09-19T06:15:06;16.70;99.90
12957;DHT22;6543;48.836;10.092;2023-09-19T06:17:34;16.70;99.90
12957;DHT22;6543;48.836;10.092;2023-09-19T06:20:05;16.20;99.90
12957;DHT22;6543;48.836;10.092;2023-09-19T06:22:38;16.90;99.90
12957;DHT22;6543;48.836;10.092;2023-09-19T06:25:07;16.50;99.90
12957;DHT22;6543;48.836;10.092;2023-09-19T06:27:37;17.00;99.90
12957;DHT22;6543;48.836;10.092;2023-09-19T06:30:06;16.40;99.90
12957;DHT22;6543;48.836;10.092;2023-09-19T06:35:00;16.40;99.90
12957;DHT22;6543;48.836;10.092;2023-09-19T06:37:30;15.90;99.90
12957;DHT22;6543;48.836;10.092;2023-09-19T06:39:57;15.60;99.90
12957;DHT22;6543;48.836;10.092;2023-09-19T06:42:24;15.50;99.90
12957;DHT22;6543;48.836;10.092;2023-09-19T06:44:50;15.40;99.90
12957;DHT22;6543;48.836;10.092;2023-09-19T06:47:18;15.40;99.90
12957;DHT22;6543;48.836;10.092;2023-09-19T06:49:46;15.30;99.90
12957;DHT22;6543;48.836;10.092;2023-09-19T06:52:13;15.40;99.90
12957;DHT22;6543;48.836;10.092;2023-09-19T06:54:42;15.40;99.90
12957;DHT22;6543;48.836;10.092;2023-09-19T06:57:09;15.40;99.90
12957;DHT22;6543;48.836;10.092;2023-09-19T06:59:43;15.40;99.90
12957;DHT22;6543;48.836;10.092;2023-09-19T07:02:20;15.40;99.90
12957;DHT22;6543;48.836;10.092;2023-09-19T07:04:58;15.60;99.90
12957;DHT22;6543;48.836;10.092;2023-09-19T07:07:30;14.90;99.90
12957;DHT22;6543;48.836;10.092;2023-09-19T07:10:02;14.40;99.90
12957;DHT22;6543;48.836;10.092;2023-09-19T07:12:31;14.10;99.90
12957;DHT22;6543;48.836;10.092;2023-09-19T07:14:59;13.90;99.90
12957;DHT22;6543;48.836;10.092;2023-09-19T07:17:29;14.70;99.90
12957;DHT22;6543;48.836;10.092;2023-09-19T07:19:58;13.80;99.90
12957;DHT22;6543;48.836;10.092;2023-09-19T07:22:26;13.90;99.90
12957;DHT22;6543;48.836;10.092;2023-09-19T07:24:55;14.20;99.90
12957;DHT22;6543;48.836;10.092;2023-09-19T07:27:37;14.30;99.90
12957;DHT22;6543;48.836;10.092;2023-09-19T07:30:05;15.10;99.90
12957;DHT22;6543;48.836;10.092;2023-09-19T07:32:33;14.00;99.90
12957;DHT22;6543;48.836;10.092;2023-09-19T07:35:02;13.90;99.90
12957;DHT22;6543;48.836;10.092;2023-09-19T07:37:29;14.00;99.90
12957;DHT22;6543;48.836;10.092;2023-09-19T07:39:56;14.10;99.90
12957;DHT22;6543;48.836;10.092;2023-09-19T07:42:39;14.10;99.90
12957;DHT22;6543;48.836;10.092;2023-09-19T07:45:07;14.10;99.90
12957;DHT22;6543;48.836;10.092;2023-09-19T07:47:34;14.10;99.90
12957;DHT22;6543;48.836;10.092;2023-09-19T07:50:01;14.10;99.90
12957;DHT22;6543;48.836;10.092;2023-09-19T07:52:29;14.10;99.90
12957;DHT22;6543;48.836;10.092;2023-09-19T07:54:56;14.30;99.90
12957;DHT22;6543;48.836;10.092;2023-09-19T07:57:23;14.70;99.90
12957;DHT22;6543;48.836;10.092;2023-09-19T07:59:53;14.80;99.90
12957;DHT22;6543;48.836;10.092;2023-09-19T08:02:21;14.70;99.90
12957;DHT22;6543;48.836;10.092;2023-09-19T08:04:48;15.60;99.90
12957;DHT22;6543;48.836;10.092;2023-09-19T08:07:17;14.70;99.90
12957;DHT22;6543;48.836;10.092;2023-09-19T08:09:48;15.00;99.90
12957;DHT22;6543;48.836;10.092;2023-09-19T08:12:29;14.90;99.90
12957;DHT22;6543;48.836;10.092;2023-09-19T08:15:08;15.70;99.90
12957;DHT22;6543;48.836;10.092;2023-09-19T08:17:35;14.00;99.90
12957;DHT22;6543;48.836;10.092;2023-09-19T08:20:03;15.10;99.90
12957;DHT22;6543;48.836;10.092;2023-09-19T08:22:31;15.20;99.90
12957;DHT22;6543;48.836;10.092;2023-09-19T08:24:59;16.50;99.90
12957;DHT22;6543;48.836;10.092;2023-09-19T08:27:27;15.30;99.90
12957;DHT22;6543;48.836;10.092;2023-09-19T08:30:03;14.90;99.90
12957;DHT22;6543;48.836;10.092;2023-09-19T08:32:32;15.30;99.90
12957;DHT22;6543;48.836;10.092;2023-09-19T08:35:06;15.10;99.90
12957;DHT22;6543;48.836;10.092;2023-09-19T08:37:35;15.30;99.90
12957;DHT22;6543;48.836;10.092;2023-09-19T08:40:02;15.10;99.90
12957;DHT22;6543;48.836;10.092;2023-09-19T08:42:47;15.30;99.90
12957;DHT22;6543;48.836;10.092;2023-09-19T08:45:16;15.30;99.90
12957;DHT22;6543;48.836;10.092;2023-09-19T08:47:46;15.40;99.90
12957;DHT22;6543;48.836;10.092;2023-09-19T08:50:19;15.60;99.90
12957;DHT22;6543;48.836;10.092;2023-09-19T08:52:55;15.70;99.90
12957;DHT22;6543;48.836;10.092;2023-09-19T08:55:26;15.80;99.90
12957;DHT22;6543;48.836;10.092;2023-09-19T08:58:00;15.90;99.90
12957;DHT22;6543;48.836;10.092;2023-09-19T09:00:31;16.10;99.90
12957;DHT22;6543;48.836;10.092;2023-09-19T09:02:59;16.00;99.90
12957;DHT22;6543;48.836;10.092;2023-09-19T09:05:28;16.10;99.90
12957;DHT22;6543;48.836;10.092;2023-09-19T09:07:55;16.40;99.90
12957;DHT22;6543;48.836;10.092;2023-09-19T09:10:23;16.60;99.90
12957;DHT22;6543;48.836;10.092;2023-09-19T09:12:52;16.50;99.90
12957;DHT22;6543;48.836;10.092;2023-09-19T09:15:22;16.70;99.90
12957;DHT22;6543;48.836;10.092;2023-09-19T09:17:52;16.70;99.90
12957;DHT22;6543;48.836;10.092;2023-09-19T09:20:21;16.80;99.90
12957;DHT22;6543;48.836;10.092;2023-09-19T09:22:51;17.10;99.90
12957;DHT22;6543;48.836;10.092;2023-09-19T09:25:20;16.80;99.90
12957;DHT22;6543;48.836;10.092;2023-09-19T09:27:58;16.90;99.90
12957;DHT22;6543;48.836;10.092;2023-09-19T09:30:34;17.80;99.90
12957;DHT22;6543;48.836;10.092;2023-09-19T09:33:10;16.90;99.90
12957;DHT22;6543;48.836;10.092;2023-09-19T09:35:47;16.20;99.90
12957;DHT22;6543;48.836;10.092;2023-09-19T09:38:43;17.00;99.90
12957;DHT22;6543;48.836;10.092;2023-09-19T09:41:16;18.00;99.90
12957;DHT22;6543;48.836;10.092;2023-09-19T09:44:13;17.00;99.90
12957;DHT22;6543;48.836;10.092;2023-09-19T09:49:48;17.20;99.90
12957;DHT22;6543;48.836;10.092;2023-09-19T09:52:44;17.70;99.90
12957;DHT22;6543;48.836;10.092;2023-09-19T09:55:11;17.70;99.90
12957;DHT22;6543;48.836;10.092;2023-09-19T09:57:39;18.10;99.90
12957;DHT22;6543;48.836;10.092;2023-09-19T10:00:07;17.80;99.90
12957;DHT22;6543;48.836;10.092;2023-09-19T10:02:45;18.10;99.90
12957;DHT22;6543;48.836;10.092;2023-09-19T10:05:16;18.30;99.90
12957;DHT22;6543;48.836;10.092;2023-09-19T10:07:53;18.30;99.90
12957;DHT22;6543;48.836;10.092;2023-09-19T10:10:30;18.50;99.90
12957;DHT22;6543;48.836;10.092;2023-09-19T10:13:06;18.10;99.90
12957;DHT22;6543;48.836;10.092;2023-09-19T10:18:04;18.30;99.90
12957;DHT22;6543;48.836;10.092;2023-09-19T10:20:36;18.00;99.90
12957;DHT22;6543;48.836;10.092;2023-09-19T10:23:07;17.80;99.90
12957;DHT22;6543;48.836;10.092;2023-09-19T10:25:38;17.80;99.90
12957;DHT22;6543;48.836;10.092;2023-09-19T10:28:06;17.70;99.90
12957;DHT22;6543;48.836;10.092;2023-09-19T10:30:37;18.00;99.90
12957;DHT22;6543;48.836;10.092;2023-09-19T10:33:09;18.00;99.90
12957;DHT22;6543;48.836;10.092;2023-09-19T10:35:42;18.10;99.90
12957;DHT22;6543;48.836;10.092;2023-09-19T10:38:11;18.30;99.90
12957;DHT22;6543;48.836;10.092;2023-09-19T10:40:38;18.80;99.90
12957;DHT22;6543;48.836;10.092;2023-09-19T10:43:12;19.10;99.90
12957;DHT22;6543;48.836;10.092;2023-09-19T10:45:44;19.20;99.90
12957;DHT22;6543;48.836;10.092;2023-09-19T10:48:12;19.20;99.90
12957;DHT22;6543;48.836;10.092;2023-09-19T10:50:46;19.30;99.90
12957;DHT22;6543;48.836;10.092;2023-09-19T10:53:15;19.60;99.90
12957;DHT22;6543;48.836;10.092;2023-09-19T10:55:51;19.70;99.90
12957;DHT22;6543;48.836;10.092;2023-09-19T10:58:29;19.40;99.90
12957;DHT22;6543;48.836;10.092;2023-09-19T11:01:00;19.10;99.90
12957;DHT22;6543;48.836;10.092;2023-09-19T11:03:37;19.00;99.90
12957;DHT22;6543;48.836;10.092;2023-09-19T11:06:12;18.70;99.90
12957;DHT22;6543;48.836;10.092;2023-09-19T11:08:55;18.70;99.90
12957;DHT22;6543;48.836;10.092;2023-09-19T11:11:55;18.50;99.90
12957;DHT22;6543;48.836;10.092;2023-09-19T11:14:43;18.40;99.90
12957;DHT22;6543;48.836;10.092;2023-09-19T11:17:41;18.50;99.90
12957;DHT22;6543;48.836;10.092;2023-09-19T11:20:21;18.40;99.90
12957;DHT22;6543;48.836;10.092;2023-09-19T11:23:25;18.30;99.90
12957;DHT22;6543;48.836;10.092;2023-09-19T11:26:03;18.70;99.90
12957;DHT22;6543;48.836;10.092;2023-09-19T11:28:31;18.90;99.90
12957;DHT22;6543;48.836;10.092;2023-09-19T11:30:58;19.00;99.90
12957;DHT22;6543;48.836;10.092;2023-09-19T11:33:25;19.60;99.90
12957;DHT22;6543;48.836;10.092;2023-09-19T11:36:04;19.40;99.90
12957;DHT22;6543;48.836;10.092;2023-09-19T11:39:00;19.00;99.90
12957;DHT22;6543;48.836;10.092;2023-09-19T11:41:40;19.00;99.90
12957;DHT22;6543;48.836;10.092;2023-09-19T11:44:40;19.00;99.90
12957;DHT22;6543;48.836;10.092;2023-09-19T11:47:08;19.10;99.90
12957;DHT22;6543;48.836;10.092;2023-09-19T11:49:40;19.20;99.90
12957;DHT22;6543;48.836;10.092;2023-09-19T11:52:08;19.60;99.90
12957;DHT22;6543;48.836;10.092;2023-09-19T11:54:41;19.70;99.90
12957;DHT22;6543;48.836;10.092;2023-09-19T11:57:11;20.00;99.90
12957;DHT22;6543;48.836;10.092;2023-09-19T11:59:46;20.20;99.90
12957;DHT22;6543;48.836;10.092;2023-09-19T12:02:27;19.80;99.90
12957;DHT22;6543;48.836;10.092;2023-09-19T12:07:27;20.20;99.90
12957;DHT22;6543;48.836;10.092;2023-09-19T12:10:05;19.80;99.90
12957;DHT22;6543;48.836;10.092;2023-09-19T12:12:36;19.90;99.90
12957;DHT22;6543;48.836;10.092;2023-09-19T12:15:04;19.90;99.90
12957;DHT22;6543;48.836;10.092;2023-09-19T12:17:35;20.30;99.90
12957;DHT22;6543;48.836;10.092;2023-09-19T12:20:03;20.30;99.90
12957;DHT22;6543;48.836;10.092;2023-09-19T12:22:39;20.30;99.90
12957;DHT22;6543;48.836;10.092;2023-09-19T12:25:07;20.50;99.90
12957;DHT22;6543;48.836;10.092;2023-09-19T12:27:41;20.60;99.90
12957;DHT22;6543;48.836;10.092;2023-09-19T12:30:10;20.60;99.90
12957;DHT22;6543;48.836;10.092;2023-09-19T12:32:40;20.70;99.90
12957;DHT22;6543;48.836;10.092;2023-09-19T12:35:07;20.60;99.90
12957;DHT22;6543;48.836;10.092;2023-09-19T12:37:36;20.50;99.90
12957;DHT22;6543;48.836;10.092;2023-09-19T12:40:05;20.40;99.90
12957;DHT22;6543;48.836;10.092;2023-09-19T12:42:43;20.60;99.90
12957;DHT22;6543;48.836;10.092;2023-09-19T12:45:11;20.60;99.90
12957;DHT22;6543;48.836;10.092;2023-09-19T12:47:39;20.80;99.90
12957;DHT22;6543;48.836;10.092;2023-09-19T12:50:10;21.00;99.90
12957;DHT22;6543;48.836;10.092;2023-09-19T12:52:43;21.20;99.90
12957;DHT22;6543;48.836;10.092;2023-09-19T12:55:23;21.40;99.90
12957;DHT22;6543;48.836;10.092;2023-09-19T12:58:08;21.70;99.90
12957;DHT22;6543;48.836;10.092;2023-09-19T13:00:37;21.80;99.90
12957;DHT22;6543;48.836;10.092;2023-09-19T13:03:16;21.40;99.90
12957;DHT22;6543;48.836;10.092;2023-09-19T13:05:52;21.50;99.90
12957;DHT22;6543;48.836;10.092;2023-09-19T13:08:23;21.40;99.90
12957;DHT22;6543;48.836;10.092;2023-09-19T13:11:09;21.50;99.90
12957;DHT22;6543;48.836;10.092;2023-09-19T13:13:42;21.60;99.90
12957;DHT22;6543;48.836;10.092;2023-09-19T13:16:10;21.20;99.90
12957;DHT22;6543;48.836;10.092;2023-09-19T13:18:44;21.00;99.90
12957;DHT22;6543;48.836;10.092;2023-09-19T13:21:12;21.10;99.90
12957;DHT22;6543;48.836;10.092;2023-09-19T13:23:50;21.30;99.90
12957;DHT22;6543;48.836;10.092;2023-09-19T13:26:17;21.40;99.90
12957;DHT22;6543;48.836;10.092;2023-09-19T13:28:46;21.50;99.90
12957;DHT22;6543;48.836;10.092;2023-09-19T13:31:15;21.60;99.90
12957;DHT22;6543;48.836;10.092;2023-09-19T13:33:45;21.40;99.90
12957;DHT22;6543;48.836;10.092;2023-09-19T13:36:13;21.20;99.90
12957;DHT22;6543;48.836;10.092;2023-09-19T13:38:40;21.50;99.90
12957;DHT22;6543;48.836;10.092;2023-09-19T13:41:09;21.60;99.90
12957;DHT22;6543;48.836;10.092;2023-09-19T13:43:37;21.70;99.90
12957;DHT22;6543;48.836;10.092;2023-09-19T13:46:06;21.60;99.90
12957;DHT22;6543;48.836;10.092;2023-09-19T13:48:37;21.50;99.90
12957;DHT22;6543;48.836;10.092;2023-09-19T13:51:04;22.40;99.90
12957;DHT22;6543;48.836;10.092;2023-09-19T13:53:31;22.10;99.90
12957;DHT22;6543;48.836;10.092;2023-09-19T13:55:58;21.30;99.90
12957;DHT22;6543;48.836;10.092;2023-09-19T13:58:25;21.10;99.90
12957;DHT22;6543;48.836;10.092;2023-09-19T14:00:52;20.90;99.90
12957;DHT22;6543;48.836;10.092;2023-09-19T14:03:23;20.70;99.90
12957;DHT22;6543;48.836;10.092;2023-09-19T14:05:54;21.10;99.90
12957;DHT22;6543;48.836;10.092;2023-09-19T14:08:21;21.10;99.90
12957;DHT22;6543;48.836;10.092;2023-09-19T14:10:49;21.00;99.90
12957;DHT22;6543;48.836;10.092;2023-09-19T14:13:16;21.00;99.90
12957;DHT22;6543;48.836;10.092;2023-09-19T14:18:09;21.10;99.90
12957;DHT22;6543;48.836;10.092;2023-09-19T14:20:39;21.20;99.90
12957;DHT22;6543;48.836;10.092;2023-09-19T14:23:07;21.30;99.90
12957;DHT22;6543;48.836;10.092;2023-09-19T14:25:36;21.50;99.90
12957;DHT22;6543;48.836;10.092;2023-09-19T14:28:04;21.00;99.90
12957;DHT22;6543;48.836;10.092;2023-09-19T14:30:32;21.30;99.90
12957;DHT22;6543;48.836;10.092;2023-09-19T14:32:59;21.30;99.90
12957;DHT22;6543;48.836;10.092;2023-09-19T14:35:27;21.20;99.90
12957;DHT22;6543;48.836;10.092;2023-09-19T14:37:59;21.80;99.90
12957;DHT22;6543;48.836;10.092;2023-09-19T14:40:26;21.40;99.90
12957;DHT22;6543;48.836;10.092;2023-09-19T14:42:52;21.50;99.90
12957;DHT22;6543;48.836;10.092;2023-09-19T14:45:19;21.40;99.90
12957;DHT22;6543;48.836;10.092;2023-09-19T14:47:46;21.50;99.90
12957;DHT22;6543;48.836;10.092;2023-09-19T14:50:13;21.40;99.90
12957;DHT22;6543;48.836;10.092;2023-09-19T14:52:41;21.20;99.90
12957;DHT22;6543;48.836;10.092;2023-09-19T14:55:09;21.10;99.90
12957;DHT22;6543;48.836;10.092;2023-09-19T14:57:41;21.10;99.90
12957;DHT22;6543;48.836;10.092;2023-09-19T15:00:12;21.00;99.90
12957;DHT22;6543;48.836;10.092;2023-09-19T15:02:39;20.90;99.90
12957;DHT22;6543;48.836;10.092;2023-09-19T15:05:07;21.00;99.90
12957;DHT22;6543;48.836;10.092;2023-09-19T15:07:35;20.90;99.90
12957;DHT22;6543;48.836;10.092;2023-09-19T15:10:04;20.90;99.90
12957;DHT22;6543;48.836;10.092;2023-09-19T15:12:34;20.90;99.90
12957;DHT22;6543;48.836;10.092;2023-09-19T15:15:02;21.00;99.90
12957;DHT22;6543;48.836;10.092;2023-09-19T15:17:30;21.00;99.90
12957;DHT22;6543;48.836;10.092;2023-09-19T15:22:24;20.60;99.90
12957;DHT22;6543;48.836;10.092;2023-09-19T15:24:52;20.50;99.90
12957;DHT22;6543;48.836;10.092;2023-09-19T15:27:19;20.50;99.90
12957;DHT22;6543;48.836;10.092;2023-09-19T15:29:48;20.50;99.90
12957;DHT22;6543;48.836;10.092;2023-09-19T15:32:15;20.50;99.90
12957;DHT22;6543;48.836;10.092;2023-09-19T15:34:42;20.90;99.90
12957;DHT22;6543;48.836;10.092;2023-09-19T15:37:08;20.90;99.90
12957;DHT22;6543;48.836;10.092;2023-09-19T15:39:36;20.70;99.90
12957;DHT22;6543;48.836;10.092;2023-09-19T15:42:03;20.50;99.90
12957;DHT22;6543;48.836;10.092;2023-09-19T15:44:30;20.60;99.90
12957;DHT22;6543;48.836;10.092;2023-09-19T15:46:59;20.70;99.90
12957;DHT22;6543;48.836;10.092;2023-09-19T15:49:26;20.80;99.90
12957;DHT22;6543;48.836;10.092;2023-09-19T15:51:53;20.50;99.90
12957;DHT22;6543;48.836;10.092;2023-09-19T15:54:20;20.70;99.90
12957;DHT22;6543;48.836;10.092;2023-09-19T15:56:47;20.70;99.90
12957;DHT22;6543;48.836;10.092;2023-09-19T15:59:16;20.60;99.90
12957;DHT22;6543;48.836;10.092;2023-09-19T16:01:45;20.50;99.90
12957;DHT22;6543;48.836;10.092;2023-09-19T16:04:13;20.50;99.90
12957;DHT22;6543;48.836;10.092;2023-09-19T16:06:42;20.50;99.90
12957;DHT22;6543;48.836;10.092;2023-09-19T16:09:09;20.50;99.90
12957;DHT22;6543;48.836;10.092;2023-09-19T16:11:37;20.40;99.90
12957;DHT22;6543;48.836;10.092;2023-09-19T16:14:04;20.40;99.90